createdAt,value
2022-12-01T00:02:19.134Z,28.00
2022-12-01T00:04:55.514Z,27.13
2022-12-01T00:07:43.551Z,26.60
2022-12-01T00:10:33.521Z,27.43
2022-12-01T00:13:04.101Z,25.67
2022-12-01T00:15:42.484Z,26.37
2022-12-01T00:18:11.536Z,27.17
2022-12-01T00:20:46.657Z,27.73
2022-12-01T00:23:21.486Z,28.07
2022-12-01T00:25:49.807Z,30.37
2022-12-01T00:28:24.673Z,26.77
2022-12-01T00:30:54.329Z,26.23
2022-12-01T00:33:29.497Z,26.50
2022-12-01T00:36:00.837Z,28.67
2022-12-01T00:38:36.539Z,28.27
2022-12-01T00:41:05.195Z,28.33
2022-12-01T00:43:39.521Z,27.03
2022-12-01T00:46:09.233Z,27.70
2022-12-01T00:48:43.562Z,28.50
2022-12-01T00:51:11.685Z,28.13
2022-12-01T00:53:46.527Z,27.17
2022-12-01T00:56:15.039Z,29.30
2022-12-01T00:58:49.523Z,29.83
2022-12-01T01:01:19.133Z,28.00
2022-12-01T01:03:54.509Z,27.60
2022-12-01T01:06:35.713Z,29.57
2022-12-01T01:09:10.542Z,30.43
2022-12-01T01:11:45.710Z,28.83
2022-12-01T01:14:14.012Z,29.37
2022-12-01T01:16:50.797Z,27.17
2022-12-01T01:19:19.450Z,29.80
2022-12-01T01:21:54.595Z,29.73
2022-12-01T01:24:22.842Z,30.70
2022-12-01T01:26:57.699Z,30.20
2022-12-01T01:29:26.110Z,28.00
2022-12-01T01:32:02.729Z,29.90
2022-12-01T01:34:31.169Z,30.37
2022-12-01T01:37:05.594Z,29.23
2022-12-01T01:39:33.748Z,28.90
2022-12-01T01:42:08.600Z,30.20
2022-12-01T01:44:53.126Z,28.20
2022-12-01T01:47:34.634Z,27.87
2022-12-01T01:50:08.530Z,28.77
2022-12-01T01:52:46.570Z,29.00
2022-12-01T01:55:16.244Z,28.80
2022-12-01T01:57:52.603Z,26.80
2022-12-01T02:00:22.988Z,27.80
2022-12-01T02:03:05.542Z,29.93
2022-12-01T02:05:45.198Z,28.60
2022-12-01T02:08:20.570Z,30.63
2022-12-01T02:11:12.235Z,27.73
2022-12-01T02:13:57.803Z,28.63
2022-12-01T02:16:32.469Z,29.13
2022-12-01T02:19:14.602Z,29.00
2022-12-01T02:22:01.770Z,30.73
2022-12-01T02:25:08.608Z,30.40
2022-12-01T02:27:52.732Z,30.83
2022-12-01T02:30:39.747Z,32.33
2022-12-01T02:33:13.647Z,32.43
2022-12-01T02:35:54.800Z,29.47
2022-12-01T02:38:29.805Z,31.97
2022-12-01T02:41:12.651Z,31.67
2022-12-01T02:43:47.083Z,33.10
2022-12-01T02:46:30.720Z,32.73
2022-12-01T02:49:03.382Z,33.73
2022-12-01T02:51:39.687Z,33.50
2022-12-01T02:54:08.701Z,35.80
2022-12-01T02:56:43.848Z,33.37
2022-12-01T02:59:13.587Z,32.80
2022-12-01T03:02:02.824Z,32.87
2022-12-01T03:04:51.543Z,35.70
2022-12-01T03:07:44.787Z,39.63
2022-12-01T03:10:20.285Z,39.33
2022-12-01T03:13:25.799Z,37.20
2022-12-01T03:16:02.652Z,34.93
2022-12-01T03:18:44.655Z,42.27
2022-12-01T03:21:21.134Z,43.53
2022-12-01T03:23:58.667Z,43.93
2022-12-01T03:26:31.653Z,48.90
2022-12-01T03:29:15.680Z,43.97
2022-12-01T03:31:49.259Z,57.43
2022-12-01T03:34:32.687Z,53.93
2022-12-01T03:37:06.617Z,52.90
2022-12-01T03:39:45.635Z,44.80
2022-12-01T03:42:18.968Z,44.40
2022-12-01T03:44:57.704Z,50.23
2022-12-01T03:47:29.680Z,54.43
2022-12-01T03:50:07.644Z,49.53
2022-12-01T03:52:45.659Z,59.63
2022-12-01T03:55:25.679Z,52.70
2022-12-01T03:57:58.132Z,56.40
2022-12-01T04:00:33.779Z,56.97
2022-12-01T04:03:04.401Z,62.70
2022-12-01T04:05:47.729Z,55.40
2022-12-01T04:08:16.209Z,62.07
2022-12-01T04:10:50.758Z,44.67
2022-12-01T04:13:23.258Z,50.77
2022-12-01T04:15:58.918Z,56.80
2022-12-01T04:18:27.190Z,61.73
2022-12-01T04:21:03.669Z,58.43
2022-12-01T04:23:49.236Z,64.80
2022-12-01T04:26:23.703Z,61.90
2022-12-01T04:28:52.505Z,66.63
2022-12-01T04:31:27.805Z,61.63
2022-12-01T04:33:56.152Z,67.53
2022-12-01T04:36:33.787Z,62.83
2022-12-01T04:39:02.959Z,59.93
2022-12-01T04:41:37.714Z,68.80
2022-12-01T04:44:06.086Z,65.90
2022-12-01T04:46:40.813Z,66.73
2022-12-01T04:49:09.157Z,67.80
2022-12-01T04:51:45.702Z,66.00
2022-12-01T04:54:13.821Z,66.20
2022-12-01T04:56:48.731Z,65.43
2022-12-01T04:59:17.264Z,67.23
2022-12-01T05:01:53.891Z,64.23
2022-12-01T05:04:29.068Z,69.23
2022-12-01T05:07:11.790Z,58.97
2022-12-01T05:09:40.292Z,61.67
2022-12-01T05:12:14.746Z,65.40
2022-12-01T05:14:43.236Z,65.77
2022-12-01T05:17:17.822Z,63.27
2022-12-01T05:20:09.991Z,60.60
2022-12-01T05:23:04.303Z,64.63
2022-12-01T05:25:34.942Z,62.30
2022-12-01T05:28:03.207Z,58.47
2022-12-01T05:30:31.614Z,60.30
2022-12-01T05:33:06.815Z,60.97
2022-12-01T05:35:35.782Z,55.00
2022-12-01T05:38:12.983Z,61.30
2022-12-01T05:40:47.970Z,59.73
2022-12-01T05:43:16.214Z,57.77
2022-12-01T05:45:50.876Z,60.50
2022-12-01T05:48:19.451Z,63.60
2022-12-01T05:50:53.837Z,60.17
2022-12-01T05:53:23.982Z,57.73
2022-12-01T05:56:00.774Z,57.07
2022-12-01T05:58:29.183Z,50.17
2022-12-01T06:01:03.750Z,59.27
2022-12-01T06:03:31.920Z,57.70
2022-12-01T06:06:13.958Z,62.60
2022-12-01T06:08:43.702Z,56.20
2022-12-01T06:11:18.792Z,59.57
2022-12-01T06:13:47.296Z,55.43
2022-12-01T06:16:21.836Z,57.83
2022-12-01T06:18:50.242Z,60.00
2022-12-01T06:21:24.817Z,61.97
2022-12-01T06:23:54.803Z,63.40
2022-12-01T06:26:29.959Z,67.20
2022-12-01T06:28:58.571Z,63.20
2022-12-01T06:31:34.021Z,69.00
2022-12-01T06:34:02.817Z,64.87
2022-12-01T06:36:37.879Z,64.40
2022-12-01T06:39:10.653Z,62.47
2022-12-01T06:41:46.005Z,65.93
2022-12-01T06:44:14.250Z,60.53
2022-12-01T06:46:48.879Z,62.63
2022-12-01T06:49:17.354Z,66.33
2022-12-01T06:51:54.222Z,55.53
2022-12-01T06:54:23.992Z,60.63
2022-12-01T06:56:58.885Z,64.47
2022-12-01T06:59:27.985Z,59.33
2022-12-01T07:02:04.034Z,62.93
2022-12-01T07:04:52.015Z,57.70
2022-12-01T07:07:26.915Z,58.57
2022-12-01T07:09:57.058Z,60.30
2022-12-01T07:12:31.913Z,57.70
2022-12-01T07:15:00.261Z,56.37
2022-12-01T07:17:34.850Z,55.13
2022-12-01T07:20:04.136Z,56.17
2022-12-01T07:22:38.861Z,51.90
2022-12-01T07:25:09.940Z,54.13
2022-12-01T07:27:45.163Z,50.10
2022-12-01T07:30:14.226Z,46.17
2022-12-01T07:32:48.869Z,46.93
2022-12-01T07:35:17.536Z,49.97
2022-12-01T07:37:52.038Z,46.47
2022-12-01T07:40:22.488Z,44.57
2022-12-01T07:42:56.861Z,46.47
2022-12-01T07:45:25.054Z,44.03
2022-12-01T07:48:00.939Z,43.90
2022-12-01T07:50:29.309Z,48.10
2022-12-01T07:53:03.873Z,43.53
2022-12-01T07:55:33.528Z,46.50
2022-12-01T07:58:08.911Z,44.07
2022-12-01T08:00:37.188Z,44.03
2022-12-01T08:03:11.989Z,42.27
2022-12-01T08:05:59.918Z,47.27
2022-12-01T08:08:34.889Z,43.17
2022-12-01T08:11:06.526Z,47.60
2022-12-01T08:13:41.871Z,47.57
2022-12-01T08:16:11.910Z,53.17
2022-12-01T08:18:47.893Z,51.03
2022-12-01T08:21:20.744Z,50.07
2022-12-01T08:23:55.964Z,50.83
2022-12-01T08:26:27.475Z,50.07
2022-12-01T08:29:03.092Z,49.97
2022-12-01T08:31:35.715Z,44.40
2022-12-01T08:34:12.965Z,43.43
2022-12-01T08:36:41.209Z,40.10
2022-12-01T08:39:17.109Z,40.50
2022-12-01T08:41:48.152Z,38.60
2022-12-01T08:44:23.040Z,40.40
2022-12-01T08:46:51.506Z,40.90
2022-12-01T08:49:26.932Z,37.80
2022-12-01T08:51:56.410Z,34.30
2022-12-01T08:54:31.273Z,31.97
2022-12-01T08:57:00.986Z,33.20
2022-12-01T08:59:36.105Z,34.07
2022-12-01T09:02:07.050Z,31.23
2022-12-01T09:04:41.972Z,27.67
2022-12-01T09:07:21.514Z,26.73
2022-12-01T09:10:00.964Z,28.03
2022-12-01T09:12:38.030Z,28.30
2022-12-01T09:15:07.112Z,27.47
2022-12-01T09:17:41.940Z,29.13
2022-12-01T09:20:11.693Z,28.67
2022-12-01T09:22:47.112Z,30.00
2022-12-01T09:25:15.377Z,26.80
2022-12-01T09:27:51.979Z,29.47
2022-12-01T09:30:20.259Z,26.67
2022-12-01T09:32:55.002Z,24.77
2022-12-01T09:35:23.768Z,26.20
2022-12-01T09:37:59.124Z,25.43
2022-12-01T09:40:34.169Z,25.93
2022-12-01T09:43:14.049Z,23.07
2022-12-01T09:45:46.270Z,24.50
2022-12-01T09:48:35.003Z,25.23
2022-12-01T09:51:03.588Z,25.23
2022-12-01T09:53:38.976Z,24.80
2022-12-01T09:56:12.793Z,24.53
2022-12-01T09:58:51.110Z,28.37
2022-12-01T10:01:26.962Z,26.17
2022-12-01T10:04:06.029Z,23.53
2022-12-01T10:06:46.231Z,26.03
2022-12-01T10:09:31.016Z,20.17
2022-12-01T10:12:08.041Z,21.90
2022-12-01T10:14:44.992Z,19.97
2022-12-01T10:17:22.074Z,20.83
2022-12-01T10:20:05.017Z,22.97
2022-12-01T10:22:56.893Z,21.33
2022-12-01T10:25:33.038Z,19.80
2022-12-01T10:28:16.772Z,20.30
2022-12-01T10:30:58.033Z,19.93
2022-12-01T10:33:28.217Z,23.33
2022-12-01T10:36:03.071Z,21.63
2022-12-01T10:38:35.826Z,22.00
2022-12-01T10:41:13.114Z,21.07
2022-12-01T10:43:45.461Z,23.60
2022-12-01T10:46:31.086Z,19.53
2022-12-01T10:49:02.584Z,23.20
2022-12-01T10:51:37.032Z,20.20
2022-12-01T10:54:11.941Z,22.33
2022-12-01T10:56:49.158Z,21.50
2022-12-01T10:59:35.923Z,23.57
2022-12-01T11:02:23.245Z,22.43
2022-12-01T11:05:15.326Z,21.37
2022-12-01T11:07:54.174Z,21.87
2022-12-01T11:10:27.000Z,23.30
2022-12-01T11:13:04.267Z,23.77
2022-12-01T11:15:34.490Z,20.83
2022-12-01T11:18:15.076Z,24.03
2022-12-01T11:20:43.497Z,24.60
2022-12-01T11:23:39.067Z,22.27
2022-12-01T11:26:12.772Z,22.53
2022-12-01T11:28:58.431Z,24.53
2022-12-01T11:31:40.052Z,23.07
2022-12-01T11:34:26.217Z,21.07
2022-12-01T11:36:57.105Z,20.97
2022-12-01T11:39:35.179Z,19.97
2022-12-01T11:42:06.198Z,25.40
2022-12-01T11:44:51.384Z,23.63
2022-12-01T11:47:24.128Z,23.17
2022-12-01T11:50:05.252Z,25.00
2022-12-01T11:52:36.897Z,22.80
2022-12-01T11:55:29.280Z,24.23
2022-12-01T11:58:01.251Z,21.57
2022-12-01T12:00:46.270Z,21.83
2022-12-01T12:03:23.275Z,21.50
2022-12-01T12:06:39.460Z,25.07
2022-12-01T12:09:36.585Z,20.77
2022-12-01T12:12:24.345Z,20.10
2022-12-01T12:15:00.863Z,20.30
2022-12-01T12:17:54.385Z,22.40
2022-12-01T12:20:48.362Z,21.30
2022-12-01T12:23:54.275Z,23.97
2022-12-01T12:26:27.523Z,21.93
2022-12-01T12:29:20.524Z,18.87
2022-12-01T12:31:58.915Z,22.93
2022-12-01T12:34:45.183Z,22.07
2022-12-01T12:37:25.046Z,19.97
2022-12-01T12:40:29.556Z,19.63
2022-12-01T12:43:23.017Z,22.30
2022-12-01T12:46:09.317Z,20.00
2022-12-01T12:51:51.313Z,19.03
2022-12-01T12:54:25.811Z,17.93
2022-12-01T12:57:07.137Z,17.57
2022-12-01T12:59:42.431Z,18.93
2022-12-01T13:02:23.265Z,21.20
2022-12-01T13:05:17.197Z,20.57
2022-12-01T13:07:59.482Z,22.93
2022-12-01T13:10:34.170Z,21.43
2022-12-01T13:13:21.222Z,22.30
2022-12-01T13:15:52.719Z,20.13
2022-12-01T13:18:36.126Z,23.03
2022-12-01T13:21:06.870Z,23.20
2022-12-01T13:23:44.203Z,22.13
2022-12-01T13:26:13.484Z,19.87
2022-12-01T13:28:53.258Z,22.90
2022-12-01T13:31:22.581Z,22.87
2022-12-01T13:34:04.199Z,23.57
2022-12-01T13:36:49.723Z,20.57
2022-12-01T13:39:28.216Z,21.17
2022-12-01T13:42:03.696Z,21.53
2022-12-01T13:44:46.200Z,23.07
2022-12-01T13:47:47.994Z,51.87
2022-12-01T13:50:46.185Z,23.33
2022-12-01T13:53:25.366Z,22.03
2022-12-01T13:56:06.272Z,24.90
2022-12-01T13:58:54.224Z,24.23
2022-12-01T14:01:48.900Z,24.40
2022-12-01T14:04:36.177Z,24.60
2022-12-01T14:07:24.314Z,25.40
2022-12-01T14:10:01.366Z,23.40
2022-12-01T14:12:34.912Z,27.03
2022-12-01T14:15:13.313Z,22.37
2022-12-01T14:17:49.255Z,26.43
2022-12-01T14:20:21.878Z,27.33
2022-12-01T14:23:11.376Z,27.43
2022-12-01T14:25:40.621Z,28.33
2022-12-01T14:28:23.385Z,25.50
2022-12-01T14:31:07.967Z,27.17
2022-12-01T14:33:54.283Z,29.17
2022-12-01T14:36:36.259Z,27.20
2022-12-01T14:39:19.406Z,27.33
2022-12-01T14:41:51.104Z,23.87
2022-12-01T14:44:31.412Z,23.90
2022-12-01T14:47:06.594Z,28.67
2022-12-01T14:49:49.498Z,25.43
2022-12-01T14:52:31.170Z,27.97
2022-12-01T14:55:08.397Z,24.97
2022-12-01T14:57:41.161Z,23.90
2022-12-01T15:00:22.475Z,28.40
2022-12-01T15:02:54.933Z,19.67
2022-12-01T15:05:34.320Z,25.80
2022-12-01T15:08:40.226Z,24.27
2022-12-01T15:11:12.366Z,25.30
2022-12-01T15:13:48.771Z,24.50
2022-12-01T15:16:25.451Z,24.17
2022-12-01T15:18:54.170Z,26.77
2022-12-01T15:21:32.325Z,26.53
2022-12-01T15:24:03.050Z,25.97
2022-12-01T15:27:04.227Z,26.17
2022-12-01T15:29:46.742Z,28.03
2022-12-01T15:32:25.475Z,28.87
2022-12-01T15:34:55.832Z,27.73
2022-12-01T15:37:35.490Z,26.00
2022-12-01T15:40:59.807Z,27.53
2022-12-01T15:43:12.280Z,33.57
2022-12-01T15:45:54.380Z,27.37
2022-12-01T15:48:29.594Z,29.43
2022-12-01T15:51:24.346Z,25.43
2022-12-01T15:53:59.040Z,26.83
2022-12-01T15:56:37.486Z,27.87
2022-12-01T15:59:10.838Z,31.77
2022-12-01T16:01:47.310Z,31.57
2022-12-01T16:04:19.922Z,24.87
2022-12-01T16:07:10.412Z,30.83
2022-12-01T16:09:41.968Z,28.97
2022-12-01T16:12:31.375Z,31.57
2022-12-01T16:15:15.595Z,28.70
2022-12-01T16:17:52.392Z,30.70
2022-12-01T16:20:25.972Z,29.73
2022-12-01T16:23:05.382Z,28.23
2022-12-01T16:25:42.309Z,29.30
2022-12-01T16:28:28.344Z,26.13
2022-12-01T16:30:56.770Z,27.90
2022-12-01T16:33:33.303Z,25.43
2022-12-01T16:36:02.133Z,28.87
2022-12-01T16:38:37.312Z,30.13
2022-12-01T16:41:18.437Z,26.57
2022-12-01T16:44:20.285Z,32.50
2022-12-01T16:46:43.108Z,31.17
2022-12-01T16:49:18.419Z,30.67
2022-12-01T16:51:55.774Z,26.97
2022-12-01T16:54:32.435Z,32.63
2022-12-01T16:57:02.145Z,29.77
2022-12-01T16:59:37.393Z,27.43
2022-12-01T17:02:06.052Z,31.37
2022-12-01T17:04:41.399Z,31.27
2022-12-01T17:07:16.494Z,37.63
2022-12-01T17:09:51.467Z,30.90
2022-12-01T17:12:25.307Z,28.53
2022-12-01T17:15:00.529Z,30.53
2022-12-01T17:17:30.865Z,31.90
2022-12-01T17:20:05.429Z,31.27
2022-12-01T17:22:33.676Z,29.10
2022-12-01T17:25:09.361Z,29.37
2022-12-01T17:27:39.660Z,27.73
2022-12-01T17:30:17.449Z,28.07
2022-12-01T17:32:46.587Z,34.97
2022-12-01T17:35:21.392Z,37.17
2022-12-01T17:37:49.990Z,31.30
2022-12-01T17:40:25.455Z,34.53
2022-12-01T17:42:55.291Z,32.97
2022-12-01T17:45:30.581Z,31.60
2022-12-01T17:47:58.794Z,33.00
2022-12-01T17:50:33.394Z,31.37
2022-12-01T17:53:01.723Z,29.90
2022-12-01T17:55:36.447Z,29.73
2022-12-01T17:58:06.238Z,31.87
2022-12-01T18:00:41.572Z,30.20
2022-12-01T18:03:09.860Z,30.47
2022-12-01T18:05:44.417Z,28.77
2022-12-01T18:08:20.081Z,30.97
2022-12-01T18:10:55.394Z,29.30
2022-12-01T18:13:25.043Z,32.07
2022-12-01T18:15:59.465Z,32.33
2022-12-01T18:18:27.910Z,30.47
2022-12-01T18:21:02.454Z,30.73
2022-12-01T18:23:30.792Z,29.87
2022-12-01T18:26:14.121Z,32.50
2022-12-01T18:28:45.577Z,31.67
2022-12-01T18:31:21.680Z,29.50
2022-12-01T18:33:50.187Z,33.07
2022-12-01T18:36:26.516Z,32.00
2022-12-01T18:38:55.152Z,29.83
2022-12-01T18:41:23.598Z,31.07
2022-12-01T18:43:59.453Z,34.03
2022-12-01T18:46:34.535Z,33.67
2022-12-01T18:49:04.801Z,33.23
2022-12-01T18:51:41.605Z,34.10
2022-12-01T18:54:13.921Z,34.93
2022-12-01T18:56:50.248Z,32.10
2022-12-01T18:59:21.381Z,33.70
2022-12-01T19:01:56.762Z,33.87
2022-12-01T19:04:25.266Z,34.37
2022-12-01T19:07:01.676Z,33.07
2022-12-01T19:09:30.331Z,34.20
2022-12-01T19:12:06.488Z,34.87
2022-12-01T19:14:36.885Z,31.97
2022-12-01T19:17:11.547Z,35.17
2022-12-01T19:19:40.321Z,34.53
2022-12-01T19:22:15.651Z,37.13
2022-12-01T19:24:50.803Z,36.53
2022-12-01T19:27:19.383Z,35.77
2022-12-01T19:29:56.505Z,34.27
2022-12-01T19:32:24.882Z,37.27
2022-12-01T19:34:53.377Z,38.57
2022-12-01T19:37:28.672Z,36.00
2022-12-01T19:39:56.976Z,38.87
2022-12-01T19:42:31.505Z,35.43
2022-12-01T19:45:07.528Z,37.17
2022-12-01T19:47:36.686Z,38.53
2022-12-01T19:50:12.742Z,33.93
2022-12-01T19:52:41.520Z,36.50
2022-12-01T19:55:17.573Z,36.33
2022-12-01T19:57:45.985Z,36.10
2022-12-01T20:00:23.510Z,36.73
2022-12-01T20:02:51.768Z,35.50
2022-12-01T20:05:33.568Z,38.93
2022-12-01T20:08:13.533Z,36.57
2022-12-01T20:10:54.590Z,37.27
2022-12-01T20:13:23.280Z,36.67
2022-12-01T20:15:59.656Z,37.67
2022-12-01T20:18:28.089Z,38.77
2022-12-01T20:21:10.607Z,37.63
2022-12-01T20:23:39.214Z,38.07
2022-12-01T20:26:15.617Z,37.23
2022-12-01T20:28:45.185Z,36.57
2022-12-01T20:31:24.753Z,38.37
2022-12-01T20:33:55.629Z,40.60
2022-12-01T20:36:31.496Z,34.87
2022-12-01T20:39:00.072Z,35.67
2022-12-01T20:41:34.521Z,38.77
2022-12-01T20:44:07.311Z,37.50
2022-12-01T20:46:47.606Z,38.97
2022-12-01T20:49:18.862Z,35.20
2022-12-01T20:51:54.550Z,35.63
2022-12-01T20:54:28.379Z,39.33
2022-12-01T20:57:04.737Z,35.87
2022-12-01T20:59:33.000Z,39.60
2022-12-01T21:02:09.572Z,36.83
2022-12-01T21:04:38.132Z,38.57
2022-12-01T21:07:18.624Z,40.37
2022-12-01T21:09:46.905Z,36.57
2022-12-01T21:12:41.720Z,36.60
2022-12-01T21:15:19.007Z,36.77
2022-12-01T21:18:00.621Z,35.70
2022-12-01T21:20:31.817Z,35.03
2022-12-01T21:23:13.822Z,34.03
2022-12-01T21:25:43.447Z,30.43
2022-12-01T21:28:25.794Z,32.37
2022-12-01T21:31:00.415Z,31.03
2022-12-01T21:33:43.611Z,30.07
2022-12-01T21:36:17.129Z,30.10
2022-12-01T21:38:52.618Z,30.03
2022-12-01T21:41:26.070Z,31.33
2022-12-01T21:44:03.693Z,29.30
2022-12-01T21:46:32.385Z,31.17
2022-12-01T21:49:08.656Z,31.47
2022-12-01T21:51:36.879Z,31.17
2022-12-01T21:54:14.669Z,31.80
2022-12-01T21:56:42.901Z,31.47
2022-12-01T21:59:24.784Z,32.90
2022-12-01T22:01:55.709Z,29.13
2022-12-01T22:04:36.666Z,30.93
2022-12-01T22:07:12.129Z,28.87
2022-12-01T22:09:46.771Z,29.93
2022-12-01T22:12:25.780Z,30.47
2022-12-01T22:15:03.658Z,31.00
2022-12-01T22:17:31.858Z,30.53
2022-12-01T22:20:09.743Z,30.60
2022-12-01T22:22:39.462Z,32.67
2022-12-01T22:25:29.810Z,32.53
2022-12-01T22:28:00.407Z,34.23
2022-12-01T22:30:35.638Z,34.37
2022-12-01T22:33:06.368Z,32.07
2022-12-01T22:35:46.641Z,35.87
2022-12-01T22:38:22.600Z,35.10
2022-12-01T22:41:04.662Z,35.67
2022-12-01T22:43:47.047Z,38.10
2022-12-01T22:46:43.802Z,35.40
2022-12-01T22:49:19.552Z,34.57
2022-12-01T22:51:57.627Z,35.43
2022-12-01T22:54:33.414Z,35.03
2022-12-01T22:57:20.643Z,38.43
2022-12-01T22:59:50.391Z,37.23
2022-12-01T23:02:29.697Z,38.70
2022-12-01T23:05:00.832Z,39.60
2022-12-01T23:07:53.920Z,40.07
2022-12-01T23:10:25.143Z,43.53
2022-12-01T23:13:02.754Z,40.63
2022-12-01T23:15:34.236Z,39.33
2022-12-01T23:18:18.691Z,39.83
2022-12-01T23:20:49.826Z,41.33
2022-12-01T23:23:28.900Z,40.33
2022-12-01T23:25:57.754Z,39.20
2022-12-01T23:28:32.666Z,41.07
2022-12-01T23:31:01.087Z,39.73
2022-12-01T23:33:37.706Z,39.50
2022-12-01T23:36:23.819Z,41.40
2022-12-01T23:39:02.863Z,40.67
2022-12-01T23:41:36.459Z,38.93
2022-12-01T23:44:18.935Z,40.80
2022-12-01T23:46:48.637Z,40.80
2022-12-01T23:49:27.736Z,41.13
2022-12-01T23:51:57.616Z,42.33
2022-12-01T23:54:36.889Z,41.27
2022-12-01T23:57:20.509Z,42.50
2022-12-01T23:59:55.744Z,42.47
